Time;durP1;ratioP1;P1;durP2;ratioP2;P2;SDS_P1;SDS_P2;PMS_P1;PMS_P2;Temp;Humidity;BMP_temperature;BMP_pressure;BME280_temperature;BME280_humidity;BME280_pressure;Samples;Min_cycle;Max_cycle;Signal;HPM_P1;HPM_P2
2021/03/06 00:00:03;;;;;;;5.00;4.50;;;;;16.10;102188.00;;;;2085543;28;20216;-64
2021/03/06 00:01:03;;;;;;;4.38;4.07;;;;;16.10;102184.00;;;;2085681;28;20212;-64
2021/03/06 00:02:04;;;;;;;4.73;4.33;;;;;16.10;102181.00;;;;2092023;28;20880;-64
2021/03/06 00:03:04;;;;;;;4.67;4.27;;;;;16.10;102191.00;;;;2092241;28;20296;-64
2021/03/06 00:04:05;;;;;;;4.80;4.40;;;;;16.10;102183.00;;;;2085090;28;20217;-64
2021/03/06 00:05:06;;;;;;;4.60;4.20;;;;;16.10;102184.00;;;;2085318;28;20217;-64
2021/03/06 00:06:06;;;;;;;4.97;4.47;;;;;16.10;102188.00;;;;2085348;28;20549;-64
2021/03/06 00:07:07;;;;;;;4.33;3.93;;;;;16.20;102191.00;;;;2085533;28;20220;-64
2021/03/06 00:08:07;;;;;;;4.53;4.13;;;;;16.10;102191.00;;;;2085705;28;20209;-64
2021/03/06 00:09:07;;;;;;;4.40;4.10;;;;;16.10;102185.00;;;;2085417;28;20213;-64
2021/03/06 00:10:12;;;;;;;4.57;4.17;;;;;16.10;102184.00;;;;2085662;28;20268;-63
2021/03/06 00:11:13;;;;;;;5.47;4.95;;;;;16.10;102191.00;;;;2085665;28;20271;-64
2021/03/06 00:12:13;;;;;;;4.53;4.23;;;;;16.10;102188.00;;;;2085238;28;20854;-64
2021/03/06 00:13:13;;;;;;;4.37;4.00;;;;;16.10;102188.00;;;;2085565;28;20209;-64
2021/03/06 00:14:14;;;;;;;4.67;4.27;;;;;16.10;102195.00;;;;2085346;28;20260;-64
2021/03/06 00:15:16;;;;;;;4.70;4.30;;;;;16.10;102193.00;;;;2085056;28;20209;-64
2021/03/06 00:16:17;;;;;;;4.70;4.30;;;;;16.10;102205.00;;;;2085517;28;20229;-64
2021/03/06 00:17:17;;;;;;;4.70;4.30;;;;;16.10;102201.00;;;;2085548;28;20575;-64
2021/03/06 00:18:17;;;;;;;5.13;4.63;;;;;16.10;102191.00;;;;2085848;28;20550;-64
2021/03/06 00:19:18;;;;;;;4.70;4.20;;;;;16.10;102192.00;;;;2085746;28;20213;-64
2021/03/06 00:20:18;;;;;;;4.00;3.70;;;;;16.10;102196.00;;;;2085500;28;20212;-64
2021/03/06 00:21:18;;;;;;;4.70;4.30;;;;;16.10;102196.00;;;;2085469;28;20217;-64
2021/03/06 00:22:19;;;;;;;5.30;4.80;;;;;16.10;102204.00;;;;2075834;28;20222;-64
2021/03/06 00:23:19;;;;;;;4.67;4.27;;;;;16.10;102207.00;;;;2076622;28;20210;-64
2021/03/06 00:24:20;;;;;;;5.00;4.50;;;;;16.10;102207.00;;;;2085387;28;20218;-64
2021/03/06 00:25:21;;;;;;;5.50;4.70;;;;;16.10;102205.00;;;;2084812;28;20308;-64
2021/03/06 00:26:21;;;;;;;5.37;4.97;;;;;16.10;102210.00;;;;2085246;28;20530;-64
2021/03/06 00:27:21;;;;;;;4.53;4.13;;;;;16.10;102209.00;;;;2085071;28;20296;-63
2021/03/06 00:28:22;;;;;;;4.90;4.50;;;;;16.10;102213.00;;;;2086945;28;20213;-64
2021/03/06 00:29:22;;;;;;;5.17;4.77;;;;;16.10;102211.00;;;;2085188;28;20220;-64
2021/03/06 00:30:23;;;;;;;4.50;4.10;;;;;16.10;102206.00;;;;2085304;28;20209;-64
2021/03/06 00:31:23;;;;;;;4.40;4.10;;;;;16.10;102197.00;;;;2085140;28;20758;-64
2021/03/06 00:32:24;;;;;;;4.80;4.40;;;;;16.10;102204.00;;;;2085363;28;20206;-64
2021/03/06 00:33:24;;;;;;;4.90;4.50;;;;;16.10;102205.00;;;;2085284;28;20205;-64
2021/03/06 00:34:24;;;;;;;4.90;4.50;;;;;16.10;102200.00;;;;2085158;28;20201;-64
2021/03/06 00:35:25;;;;;;;4.80;4.40;;;;;16.10;102203.00;;;;2085006;28;20201;-64
2021/03/06 00:36:25;;;;;;;5.30;4.40;;;;;16.10;102203.00;;;;2085320;28;20292;-64
2021/03/06 00:37:25;;;;;;;4.13;3.73;;;;;16.10;102206.00;;;;2076468;28;20217;-64
2021/03/06 00:38:26;;;;;;;4.27;3.97;;;;;16.10;102193.00;;;;2068455;28;20552;-64
2021/03/06 00:39:26;;;;;;;4.27;3.97;;;;;16.10;102202.00;;;;2076321;28;20211;-64
2021/03/06 00:40:27;;;;;;;4.70;4.30;;;;;16.10;102199.00;;;;2076568;28;20221;-64
2021/03/06 00:41:27;;;;;;;5.07;4.60;;;;;16.10;102208.00;;;;2085232;28;20232;-64
2021/03/06 00:42:27;;;;;;;4.60;4.20;;;;;16.10;102206.00;;;;2085046;28;20267;-64
2021/03/06 00:43:28;;;;;;;4.30;3.97;;;;;16.10;102208.00;;;;2085408;28;20210;-63
2021/03/06 00:44:28;;;;;;;4.50;4.10;;;;;16.10;102202.00;;;;2085178;28;20240;-64
2021/03/06 00:45:29;;;;;;;4.87;4.47;;;;;16.10;102204.00;;;;2084855;28;20205;-64
2021/03/06 00:46:29;;;;;;;5.10;4.60;;;;;16.10;102196.00;;;;2076752;28;20248;-64
2021/03/06 00:47:30;;;;;;;5.10;4.70;;;;;16.10;102204.00;;;;2077996;28;20218;-64
2021/03/06 00:48:30;;;;;;;4.80;4.40;;;;;16.10;102204.00;;;;2086020;28;20214;-64
2021/03/06 00:49:30;;;;;;;5.03;4.40;;;;;16.10;102206.00;;;;2083993;28;20216;-64
2021/03/06 00:50:32;;;;;;;4.73;4.00;;;;;16.10;102194.00;;;;2085358;28;20214;-64
2021/03/06 00:51:32;;;;;;;4.03;3.70;;;;;16.10;102205.00;;;;2085236;28;20297;-64
2021/03/06 00:52:33;;;;;;;4.57;3.90;;;;;16.10;102195.00;;;;2091136;28;20225;-63
2021/03/06 00:53:34;;;;;;;4.37;4.07;;;;;16.10;102198.00;;;;2094005;28;20208;-64
2021/03/06 00:54:34;;;;;;;4.57;3.85;;;;;16.10;102192.00;;;;2080931;28;20214;-64
2021/03/06 00:55:35;;;;;;;4.37;3.97;;;;;16.10;102199.00;;;;2085127;28;20222;-64
2021/03/06 00:56:35;;;;;;;4.93;4.53;;;;;16.00;102197.00;;;;2085208;28;20213;-63
2021/03/06 00:57:35;;;;;;;5.20;4.70;;;;;16.10;102201.00;;;;2091214;28;20220;-64
2021/03/06 00:58:36;;;;;;;4.90;4.43;;;;;16.00;102195.00;;;;2091410;28;20233;-64
2021/03/06 00:59:36;;;;;;;4.70;4.30;;;;;16.10;102193.00;;;;2085112;28;20229;-64
2021/03/06 01:00:36;;;;;;;5.23;4.83;;;;;16.10;102204.00;;;;2085091;28;20210;-64
2021/03/06 01:01:37;;;;;;;4.57;4.17;;;;;16.10;102197.00;;;;2085161;28;20233;-64
2021/03/06 01:02:37;;;;;;;4.73;4.30;;;;;16.10;102200.00;;;;2085112;28;20659;-64
2021/03/06 01:03:37;;;;;;;4.97;4.50;;;;;16.10;102198.00;;;;2085182;28;20272;-64
2021/03/06 01:04:38;;;;;;;4.97;4.57;;;;;16.10;102198.00;;;;2084564;28;20206;-64
2021/03/06 01:05:38;;;;;;;4.13;3.83;;;;;16.10;102191.00;;;;2085258;28;20210;-64
2021/03/06 01:06:39;;;;;;;4.63;4.03;;;;;16.10;102193.00;;;;2085122;28;20238;-64
2021/03/06 01:07:39;;;;;;;4.70;4.30;;;;;16.10;102191.00;;;;2084034;28;20255;-64
2021/03/06 01:08:39;;;;;;;4.40;4.10;;;;;16.10;102190.00;;;;2084825;28;20268;-63
2021/03/06 01:09:40;;;;;;;4.67;4.27;;;;;16.10;102184.00;;;;2085076;28;20869;-64
2021/03/06 01:10:42;;;;;;;4.73;4.33;;;;;16.10;102191.00;;;;2085113;28;20206;-64
2021/03/06 01:11:43;;;;;;;4.70;4.30;;;;;16.10;102194.00;;;;2083554;28;20297;-64
2021/03/06 01:12:43;;;;;;;4.77;4.37;;;;;16.10;102188.00;;;;2083488;28;20692;-64
2021/03/06 01:13:43;;;;;;;5.33;4.90;;;;;16.10;102188.00;;;;2085016;28;20707;-64
2021/03/06 01:14:44;;;;;;;4.40;4.00;;;;;16.10;102191.00;;;;2084178;28;20671;-64
2021/03/06 01:15:45;;;;;;;4.43;4.03;;;;;16.10;102193.00;;;;2084700;28;20310;-64
2021/03/06 01:16:45;;;;;;;4.70;4.25;;;;;16.10;102186.00;;;;2085932;28;20216;-64
2021/03/06 01:17:46;;;;;;;4.63;4.23;;;;;16.10;102187.00;;;;2086055;28;20561;-64
2021/03/06 01:18:46;;;;;;;4.60;4.20;;;;;16.10;102189.00;;;;2068835;28;20225;-70
2021/03/06 01:19:46;;;;;;;4.90;4.40;;;;;16.10;102189.00;;;;2068161;28;20219;-70
2021/03/06 01:20:47;;;;;;;4.53;4.13;;;;;16.10;102189.00;;;;2076022;28;20291;-70
2021/03/06 01:21:47;;;;;;;5.00;4.60;;;;;16.00;102188.00;;;;2068167;28;20219;-70
2021/03/06 01:22:48;;;;;;;4.87;4.47;;;;;16.00;102184.00;;;;2075997;28;20229;-70
2021/03/06 01:23:48;;;;;;;4.90;4.50;;;;;16.10;102181.00;;;;2078880;28;20258;-70
2021/03/06 01:24:48;;;;;;;5.00;4.60;;;;;16.00;102187.00;;;;2069153;28;20382;-70
2021/03/06 01:25:49;;;;;;;4.60;4.23;;;;;16.10;102185.00;;;;2076041;28;20211;-69
2021/03/06 01:26:49;;;;;;;4.70;4.30;;;;;16.10;102178.00;;;;2085156;28;20265;-70
2021/03/06 01:27:50;;;;;;;5.17;4.70;;;;;16.10;102186.00;;;;2078613;28;20646;-70
2021/03/06 01:28:50;;;;;;;4.90;4.50;;;;;16.10;102182.00;;;;2078692;28;20217;-69
2021/03/06 01:29:50;;;;;;;4.60;4.10;;;;;16.00;102186.00;;;;2084897;28;20206;-70
2021/03/06 01:30:51;;;;;;;5.10;4.70;;;;;16.00;102175.00;;;;2084898;28;20272;-70
2021/03/06 01:31:51;;;;;;;4.47;4.10;;;;;16.00;102190.00;;;;2078499;28;20240;-70
2021/03/06 01:32:52;;;;;;;4.20;3.87;;;;;16.00;102180.00;;;;2078550;28;20214;-70
2021/03/06 01:33:52;;;;;;;4.37;4.03;;;;;16.00;102188.00;;;;2076147;28;20604;-70
2021/03/06 01:34:52;;;;;;;4.90;4.40;;;;;16.00;102185.00;;;;2075590;28;20305;-70
2021/03/06 01:35:53;;;;;;;4.30;4.00;;;;;16.10;102177.00;;;;2084902;28;20229;-70
2021/03/06 01:36:55;;;;;;;4.80;4.37;;;;;16.10;102182.00;;;;2085023;28;20263;-70
2021/03/06 01:37:56;;;;;;;6.00;5.20;;;;;16.00;102182.00;;;;2091127;28;20197;-70
2021/03/06 01:38:56;;;;;;;4.60;4.27;;;;;16.10;102183.00;;;;2089899;28;20204;-70
2021/03/06 01:39:56;;;;;;;4.23;3.83;;;;;16.00;102182.00;;;;2084891;28;20610;-70
2021/03/06 01:40:57;;;;;;;4.30;3.90;;;;;16.00;102178.00;;;;2075535;28;20620;-70
2021/03/06 01:41:57;;;;;;;4.80;4.40;;;;;16.00;102165.00;;;;2072720;28;20221;-70
2021/03/06 01:42:58;;;;;;;5.20;4.70;;;;;16.00;102182.00;;;;2075420;28;20484;-70
2021/03/06 01:43:58;;;;;;;5.40;4.90;;;;;16.00;102189.00;;;;2082740;28;20984;-70
2021/03/06 01:44:58;;;;;;;4.67;4.27;;;;;16.00;102184.00;;;;2090398;28;20227;-69
2021/03/06 01:45:59;;;;;;;4.40;4.00;;;;;16.00;102183.00;;;;2075196;28;20206;-70
2021/03/06 01:46:59;;;;;;;4.90;4.50;;;;;16.00;102183.00;;;;2076955;28;20237;-70
2021/03/06 01:48:00;;;;;;;4.80;4.40;;;;;16.00;102176.00;;;;2085802;28;20218;-70
2021/03/06 01:49:01;;;;;;;4.78;4.38;;;;;16.00;102173.00;;;;2081480;28;20256;-70
2021/03/06 01:50:03;;;;;;;4.50;4.20;;;;;16.00;102184.00;;;;2074496;28;20330;-70
2021/03/06 01:51:04;;;;;;;4.75;4.35;;;;;16.00;102177.00;;;;2076304;28;20479;-70
2021/03/06 01:52:04;;;;;;;5.87;4.70;;;;;16.00;102178.00;;;;2084781;28;20292;-68
2021/03/06 01:53:07;;;;;;;4.60;4.20;;;;;16.00;102178.00;;;;2082553;28;20230;-70
2021/03/06 01:54:07;;;;;;;4.57;4.18;;;;;16.00;102184.00;;;;2074388;28;20199;-70
2021/03/06 01:55:08;;;;;;;5.20;4.70;;;;;16.10;102178.00;;;;2066928;28;20943;-70
2021/03/06 01:56:08;;;;;;;4.67;4.27;;;;;16.10;102183.00;;;;2059729;28;20299;-70
2021/03/06 01:57:08;;;;;;;6.30;4.50;;;;;16.00;102181.00;;;;2060579;28;20451;-70
2021/03/06 01:58:09;;;;;;;4.87;4.47;;;;;16.10;102178.00;;;;2082404;28;20271;-70
2021/03/06 01:59:09;;;;;;;5.00;4.57;;;;;16.00;102181.00;;;;2090638;28;20241;-70
2021/03/06 02:00:10;;;;;;;4.77;4.37;;;;;16.00;102186.00;;;;2076077;28;20782;-70
2021/03/06 02:01:10;;;;;;;4.60;4.20;;;;;16.00;102180.00;;;;2075865;28;20210;-70
2021/03/06 02:02:10;;;;;;;4.60;4.30;;;;;16.00;102172.00;;;;2076021;28;20264;-70
2021/03/06 02:03:11;;;;;;;5.47;4.53;;;;;16.00;102175.00;;;;2076040;28;20209;-70
2021/03/06 02:04:12;;;;;;;4.97;4.57;;;;;16.00;102181.00;;;;2075898;28;20229;-69
2021/03/06 02:05:13;;;;;;;5.00;4.50;;;;;16.00;102173.00;;;;2075094;28;20299;-70
2021/03/06 02:06:13;;;;;;;5.10;4.67;;;;;16.00;102171.00;;;;2075817;28;20296;-70
2021/03/06 02:07:13;;;;;;;4.53;4.13;;;;;16.00;102181.00;;;;2067769;28;20512;-69
2021/03/06 02:08:14;;;;;;;5.13;4.70;;;;;16.00;102179.00;;;;2067760;28;20222;-70
2021/03/06 02:09:14;;;;;;;5.20;4.70;;;;;16.00;102169.00;;;;2084668;28;20209;-70
2021/03/06 02:10:15;;;;;;;4.83;4.43;;;;;16.00;102173.00;;;;2084970;28;20225;-70
2021/03/06 02:11:21;;;;;;;5.18;4.53;;;;;16.00;102172.00;;;;2076040;28;20599;-70
2021/03/06 02:12:25;;;;;;;5.00;4.50;;;;;16.00;102171.00;;;;2075521;28;20222;-69
2021/03/06 02:13:43;;;;;;;5.25;4.75;;;;;16.00;102170.00;;;;2075188;28;20639;-70
2021/03/06 02:14:54;;;;;;;4.75;4.32;;;;;16.00;102163.00;;;;2078126;28;20218;-70
2021/03/06 02:16:03;;;;;;;4.70;4.30;;;;;16.00;102176.00;;;;2078471;28;20276;-70
2021/03/06 02:17:07;;;;;;;4.45;4.05;;;;;16.00;102173.00;;;;2071892;28;20203;-70
2021/03/06 02:18:12;;;;;;;4.93;4.53;;;;;16.00;102170.00;;;;2074780;28;20210;-70
2021/03/06 02:19:31;;;;;;;4.93;4.53;;;;;16.00;102179.00;;;;2080857;28;20264;-70
2021/03/06 02:20:51;;;;;;;4.82;4.43;;;;;16.00;102174.00;;;;2084096;28;20217;-70
2021/03/06 02:22:16;;;;;;;4.95;4.45;;;;;16.00;102170.00;;;;2065880;28;20214;-69
2021/03/06 02:23:40;;;;;;;4.78;4.38;;;;;15.90;102178.00;;;;2074166;28;20244;-70
2021/03/06 02:25:10;;;;;;;4.60;4.20;;;;;16.00;102162.00;;;;2083933;28;20226;-70
2021/03/06 02:26:27;;;;;;;5.45;5.05;;;;;16.00;102169.00;;;;2090567;28;20247;-70
2021/03/06 02:27:42;;;;;;;5.32;4.85;;;;;16.00;102163.00;;;;2076690;28;20524;-70
2021/03/06 02:29:01;;;;;;;4.00;3.70;;;;;15.90;102173.00;;;;2075767;28;20308;-70
2021/03/06 02:30:05;;;;;;;4.57;4.18;;;;;16.00;102172.00;;;;2078049;28;20223;-70
2021/03/06 02:31:05;;;;;;;4.97;4.57;;;;;16.00;102165.00;;;;2090628;28;20238;-70
2021/03/06 02:32:20;;;;;;;5.50;5.00;;;;;16.00;102166.00;;;;2074106;28;20543;-70
2021/03/06 02:33:21;;;;;;;4.55;4.15;;;;;16.00;102170.00;;;;2069313;28;20719;-70
2021/03/06 02:34:28;;;;;;;4.80;4.40;;;;;16.00;102168.00;;;;2067656;28;20227;-70
2021/03/06 02:35:30;;;;;;;4.60;4.25;;;;;16.00;102155.00;;;;2059628;28;20227;-70
2021/03/06 02:36:33;;;;;;;4.60;4.20;;;;;16.00;102171.00;;;;2054418;28;20214;-70
2021/03/06 02:37:35;;;;;;;4.80;4.40;;;;;16.00;102162.00;;;;2066982;28;20214;-70
2021/03/06 02:38:36;;;;;;;4.60;4.20;;;;;16.00;102166.00;;;;2075860;28;20215;-70
2021/03/06 02:39:42;;;;;;;5.37;4.83;;;;;16.00;102150.00;;;;2067224;28;20215;-70
2021/03/06 02:40:42;;;;;;;4.78;4.38;;;;;15.90;102168.00;;;;2074263;28;20226;-70
2021/03/06 02:41:43;;;;;;;5.03;4.63;;;;;16.00;102170.00;;;;2067783;28;20698;-70
2021/03/06 02:42:43;;;;;;;5.10;4.60;;;;;16.00;102170.00;;;;2067616;28;20687;-70
2021/03/06 02:43:44;;;;;;;4.83;4.43;;;;;16.00;102174.00;;;;2067677;28;20713;-70
2021/03/06 02:44:44;;;;;;;5.20;4.30;;;;;16.00;102163.00;;;;2083009;28;20241;-70
2021/03/06 02:45:45;;;;;;;5.20;4.73;;;;;16.00;102171.00;;;;2076086;28;20214;-70
2021/03/06 02:46:47;;;;;;;4.63;4.33;;;;;16.00;102172.00;;;;2069112;28;20928;-69
2021/03/06 02:47:47;;;;;;;5.05;4.60;;;;;16.00;102177.00;;;;2077405;28;20218;-70
2021/03/06 02:48:48;;;;;;;4.60;4.20;;;;;16.00;102176.00;;;;2070199;28;20685;-70
2021/03/06 02:49:55;;;;;;;4.82;4.45;;;;;16.00;102171.00;;;;2062355;28;20227;-70
2021/03/06 02:50:56;;;;;;;4.25;3.95;;;;;15.90;102175.00;;;;2068442;28;20741;-68
2021/03/06 02:51:56;;;;;;;5.00;4.60;;;;;16.00;102177.00;;;;2071649;28;20213;-70
2021/03/06 02:52:56;;;;;;;4.93;4.53;;;;;16.00;102178.00;;;;2077296;28;20213;-69
2021/03/06 02:53:57;;;;;;;6.57;4.67;;;;;15.90;102162.00;;;;2091927;28;20409;-70
2021/03/06 02:54:57;;;;;;;4.73;4.33;;;;;16.00;102177.00;;;;2083163;28;20220;-70
2021/03/06 02:55:57;;;;;;;5.07;4.67;;;;;16.00;102175.00;;;;2069144;28;20214;-70
2021/03/06 02:56:58;;;;;;;5.00;4.60;;;;;16.00;102177.00;;;;2072224;28;20214;-70
2021/03/06 02:58:04;;;;;;;4.60;4.20;;;;;15.90;102175.00;;;;2063506;28;20309;-70
2021/03/06 02:59:37;;;;;;;5.20;4.80;;;;;15.90;102169.00;;;;2066872;28;20248;-70
2021/03/06 03:00:47;;;;;;;5.10;4.60;;;;;16.00;102182.00;;;;2087130;28;20209;-69
2021/03/06 03:02:04;;;;;;;5.45;4.95;;;;;15.90;102180.00;;;;2080973;28;20217;-70
2021/03/06 03:03:49;;;;;;;4.90;4.50;;;;;15.90;102174.00;;;;2071694;28;20217;-70
2021/03/06 03:04:49;;;;;;;4.70;4.30;;;;;15.90;102175.00;;;;2075844;28;20216;-70
2021/03/06 03:05:59;;;;;;;4.63;4.23;;;;;15.90;102176.00;;;;2086084;28;20205;-70
2021/03/06 03:07:27;;;;;;;5.00;4.60;;;;;15.90;102182.00;;;;2085493;28;20732;-70
2021/03/06 03:08:29;;;;;;;5.65;4.40;;;;;15.90;102178.00;;;;2072101;28;20214;-70
2021/03/06 03:09:30;;;;;;;5.72;5.22;;;;;15.90;102174.00;;;;2069954;28;20284;-70
2021/03/06 03:10:32;;;;;;;5.13;4.23;;;;;15.90;102175.00;;;;2069085;28;20214;-68
2021/03/06 03:11:45;;;;;;;4.25;3.95;;;;;15.90;102173.00;;;;2069321;28;20207;-70
2021/03/06 03:13:01;;;;;;;4.10;3.70;;;;;15.90;102172.00;;;;2062810;28;20729;-70
2021/03/06 03:14:01;;;;;;;4.80;4.40;;;;;15.90;102176.00;;;;2082451;28;20297;-69
2021/03/06 03:15:17;;;;;;;4.77;4.37;;;;;15.90;102176.00;;;;2084100;28;20217;-69
2021/03/06 03:16:23;;;;;;;5.60;5.13;;;;;15.90;102173.00;;;;2081462;28;20730;-70
2021/03/06 03:17:36;;;;;;;4.82;4.45;;;;;15.90;102168.00;;;;2078774;28;20351;-70
2021/03/06 03:18:50;;;;;;;5.00;4.60;;;;;15.90;102172.00;;;;2078256;28;20269;-70
2021/03/06 03:19:53;;;;;;;4.95;4.55;;;;;15.90;102168.00;;;;2082773;28;20327;-70
2021/03/06 03:20:55;;;;;;;5.18;4.63;;;;;15.90;102164.00;;;;2083071;28;20213;-70
2021/03/06 03:21:56;;;;;;;5.28;4.88;;;;;15.90;102169.00;;;;2079855;28;20257;-70
2021/03/06 03:23:29;;;;;;;5.47;4.90;;;;;15.90;102162.00;;;;2063558;28;20897;-70
2021/03/06 03:24:34;;;;;;;4.85;4.45;;;;;15.90;102173.00;;;;2068800;28;20591;-70
2021/03/06 03:25:35;;;;;;;4.90;4.50;;;;;15.90;102175.00;;;;2069444;28;20221;-70
2021/03/06 03:26:36;;;;;;;4.67;4.37;;;;;15.90;102163.00;;;;2076778;28;20288;-70
2021/03/06 03:27:37;;;;;;;4.93;4.53;;;;;15.90;102168.00;;;;2071816;28;20477;-70
2021/03/06 03:28:42;;;;;;;5.30;4.70;;;;;15.90;102167.00;;;;2076709;28;20215;-70
2021/03/06 03:29:43;;;;;;;4.70;4.30;;;;;15.90;102168.00;;;;2089461;28;20490;-70
2021/03/06 03:30:43;;;;;;;4.83;4.43;;;;;15.90;102167.00;;;;2083120;28;20210;-70
2021/03/06 03:31:45;;;;;;;4.30;4.00;;;;;15.90;102162.00;;;;2075174;28;20222;-70
2021/03/06 03:32:47;;;;;;;5.68;5.18;;;;;15.90;102168.00;;;;2079902;28;20285;-70
2021/03/06 03:33:47;;;;;;;5.00;4.50;;;;;15.90;102165.00;;;;2071557;28;20560;-70
2021/03/06 03:34:47;;;;;;;4.50;4.10;;;;;15.90;102169.00;;;;2060079;28;20222;-70
2021/03/06 03:35:48;;;;;;;4.60;4.20;;;;;15.90;102167.00;;;;2059913;28;21355;-70
2021/03/06 03:36:48;;;;;;;4.90;4.50;;;;;15.90;102166.00;;;;2068676;28;20231;-70
2021/03/06 03:37:49;;;;;;;5.17;4.67;;;;;15.90;102169.00;;;;2068579;28;20238;-70
2021/03/06 03:38:49;;;;;;;4.77;4.37;;;;;15.90;102170.00;;;;2066513;28;20246;-70
2021/03/06 03:39:50;;;;;;;4.67;4.27;;;;;15.90;102170.00;;;;2076651;28;20234;-70
2021/03/06 03:40:50;;;;;;;5.17;4.67;;;;;15.90;102171.00;;;;2071211;28;20321;-70
2021/03/06 03:41:50;;;;;;;4.87;4.47;;;;;15.90;102163.00;;;;2079156;28;20288;-70
2021/03/06 03:42:51;;;;;;;4.50;4.10;;;;;15.90;102169.00;;;;2078948;28;20218;-70
2021/03/06 03:43:51;;;;;;;4.27;3.97;;;;;15.90;102171.00;;;;2079348;28;20210;-70
2021/03/06 03:44:51;;;;;;;4.90;4.40;;;;;15.90;102174.00;;;;2078289;28;20253;-70
2021/03/06 03:45:52;;;;;;;5.00;4.50;;;;;15.90;102176.00;;;;2085478;28;20245;-70
2021/03/06 03:46:55;;;;;;;5.17;4.67;;;;;15.90;102170.00;;;;2078210;28;20245;-70
2021/03/06 03:47:55;;;;;;;4.32;3.95;;;;;15.90;102177.00;;;;2078363;28;20225;-70
2021/03/06 03:48:56;;;;;;;4.70;4.30;;;;;15.80;102170.00;;;;2079427;28;20211;-70
2021/03/06 03:49:56;;;;;;;4.87;4.47;;;;;15.90;102169.00;;;;2075634;28;20218;-70
2021/03/06 03:50:56;;;;;;;4.60;4.20;;;;;15.90;102149.00;;;;2068316;28;20214;-70
2021/03/06 03:51:57;;;;;;;4.83;4.43;;;;;15.80;102171.00;;;;2074518;28;20206;-70
2021/03/06 03:52:57;;;;;;;4.50;4.10;;;;;15.90;102171.00;;;;2061802;28;20212;-70
2021/03/06 03:53:57;;;;;;;4.80;4.40;;;;;15.80;102173.00;;;;2065962;28;20852;-70
2021/03/06 03:54:58;;;;;;;5.50;5.00;;;;;15.90;102164.00;;;;2074070;28;20289;-70
2021/03/06 03:56:00;;;;;;;4.27;3.97;;;;;15.90;102173.00;;;;2059693;28;20271;-70
2021/03/06 03:57:01;;;;;;;4.82;4.43;;;;;15.90;102169.00;;;;2068351;28;20473;-70
2021/03/06 03:58:02;;;;;;;5.05;4.65;;;;;15.90;102165.00;;;;2062384;28;20295;-69
2021/03/06 03:59:02;;;;;;;5.17;4.77;;;;;15.90;102168.00;;;;2080589;28;20217;-70
2021/03/06 04:00:09;;;;;;;4.87;4.47;;;;;15.90;102173.00;;;;2082470;28;20206;-69
2021/03/06 04:01:10;;;;;;;4.90;4.50;;;;;15.90;102174.00;;;;2082945;28;20214;-70
2021/03/06 04:02:10;;;;;;;5.03;4.63;;;;;15.90;102171.00;;;;2090155;28;20237;-70
2021/03/06 04:03:13;;;;;;;4.40;4.00;;;;;15.90;102173.00;;;;2075310;28;20232;-70
2021/03/06 04:04:25;;;;;;;4.47;4.10;;;;;15.90;102175.00;;;;2078327;28;20301;-70
2021/03/06 04:05:26;;;;;;;4.57;4.20;;;;;15.90;102176.00;;;;2069712;28;20633;-69
2021/03/06 04:06:26;;;;;;;4.73;4.33;;;;;15.90;102179.00;;;;2076227;28;20222;-70
2021/03/06 04:07:26;;;;;;;4.53;4.20;;;;;15.90;102180.00;;;;2076353;28;20218;-70
2021/03/06 04:08:27;;;;;;;4.73;4.33;;;;;15.90;102178.00;;;;2076115;28;20317;-70
2021/03/06 04:09:27;;;;;;;5.00;4.50;;;;;15.90;102187.00;;;;2085014;28;20228;-70
2021/03/06 04:10:28;;;;;;;5.00;4.53;;;;;15.90;102183.00;;;;2085124;28;20712;-70
2021/03/06 04:11:28;;;;;;;4.60;4.20;;;;;15.90;102181.00;;;;2076598;28;20688;-70
2021/03/06 04:12:28;;;;;;;4.57;4.27;;;;;15.90;102177.00;;;;2076337;28;20226;-70
2021/03/06 04:13:29;;;;;;;4.83;4.43;;;;;15.90;102171.00;;;;2086548;28;20249;-70
2021/03/06 04:14:29;;;;;;;4.67;4.37;;;;;15.90;102172.00;;;;2090958;28;20244;-70
2021/03/06 04:15:29;;;;;;;4.23;3.87;;;;;15.90;102180.00;;;;2090766;28;20657;-70
2021/03/06 04:16:30;;;;;;;4.90;4.50;;;;;15.90;102183.00;;;;2087103;28;20622;-70
2021/03/06 04:17:30;;;;;;;5.23;4.70;;;;;15.90;102178.00;;;;2086829;28;20623;-70
2021/03/06 04:18:30;;;;;;;4.23;3.83;;;;;15.90;102183.00;;;;2080908;28;20705;-70
2021/03/06 04:19:31;;;;;;;4.90;4.50;;;;;15.90;102183.00;;;;2078102;28;20708;-70
2021/03/06 04:20:31;;;;;;;4.63;4.23;;;;;15.90;102185.00;;;;2076426;28;20680;-70
2021/03/06 04:21:31;;;;;;;4.97;4.47;;;;;15.90;102183.00;;;;2076618;28;20958;-70
2021/03/06 04:22:32;;;;;;;5.23;4.73;;;;;15.90;102184.00;;;;2076701;28;20217;-70
2021/03/06 04:23:32;;;;;;;4.47;4.13;;;;;15.90;102183.00;;;;2076709;28;20284;-70
2021/03/06 04:24:32;;;;;;;4.77;4.37;;;;;15.90;102184.00;;;;2076131;28;20214;-70
2021/03/06 04:25:33;;;;;;;4.50;4.10;;;;;15.90;102180.00;;;;2084815;28;20209;-70
2021/03/06 04:26:33;;;;;;;4.43;4.03;;;;;15.90;102188.00;;;;2076570;28;20573;-70
2021/03/06 04:27:34;;;;;;;4.30;4.00;;;;;15.80;102177.00;;;;2076721;28;20648;-70
2021/03/06 04:28:34;;;;;;;4.90;4.20;;;;;15.80;102184.00;;;;2076713;28;21043;-70
2021/03/06 04:29:34;;;;;;;4.83;4.43;;;;;15.80;102186.00;;;;2085649;28;20312;-69
2021/03/06 04:30:35;;;;;;;4.23;3.87;;;;;15.80;102190.00;;;;2075762;28;20925;-67
2021/03/06 04:31:35;;;;;;;4.80;4.40;;;;;15.80;102187.00;;;;2074125;28;20221;-67
2021/03/06 04:32:36;;;;;;;4.70;4.30;;;;;15.80;102192.00;;;;2087711;28;20218;-69
2021/03/06 04:33:36;;;;;;;4.35;4.05;;;;;15.90;102185.00;;;;2085865;28;20298;-69
2021/03/06 04:34:37;;;;;;;4.87;4.47;;;;;15.80;102181.00;;;;2067136;28;20214;-69
2021/03/06 04:35:37;;;;;;;4.30;3.90;;;;;15.80;102189.00;;;;2065965;28;20276;-69
2021/03/06 04:36:37;;;;;;;4.97;4.57;;;;;15.90;102190.00;;;;2075570;28;20249;-70
2021/03/06 04:37:38;;;;;;;4.03;3.63;;;;;15.70;102189.00;;;;2076728;28;20471;-70
2021/03/06 04:38:38;;;;;;;3.90;3.60;;;;;15.90;102189.00;;;;2085066;28;20643;-70
2021/03/06 04:39:39;;;;;;;4.47;4.07;;;;;15.80;102190.00;;;;2090965;28;20222;-70
2021/03/06 04:40:39;;;;;;;4.03;3.73;;;;;15.80;102190.00;;;;2082622;28;20222;-70
2021/03/06 04:41:39;;;;;;;4.70;4.10;;;;;15.80;102202.00;;;;2076642;28;20249;-70
2021/03/06 04:42:40;;;;;;;4.77;4.37;;;;;15.80;102188.00;;;;2084910;28;20206;-70
2021/03/06 04:43:40;;;;;;;4.20;3.90;;;;;15.80;102182.00;;;;2085375;28;20471;-70
2021/03/06 04:44:40;;;;;;;4.43;4.03;;;;;15.80;102184.00;;;;2090399;28;20229;-70
2021/03/06 04:45:41;;;;;;;4.30;3.90;;;;;15.80;102188.00;;;;2082600;28;20943;-70
2021/03/06 04:46:41;;;;;;;4.60;4.20;;;;;15.80;102194.00;;;;2078213;28;20775;-70
2021/03/06 04:47:42;;;;;;;4.73;4.33;;;;;15.80;102175.00;;;;2086679;28;20574;-68
2021/03/06 04:48:43;;;;;;;4.85;4.45;;;;;15.80;102189.00;;;;2074154;28;20210;-70
2021/03/06 04:49:43;;;;;;;4.47;4.07;;;;;15.80;102190.00;;;;2060223;28;20747;-70
2021/03/06 04:50:44;;;;;;;4.03;3.73;;;;;15.80;102191.00;;;;2060100;28;20224;-70
2021/03/06 04:51:44;;;;;;;5.07;4.27;;;;;15.80;102193.00;;;;2076401;28;20214;-70
2021/03/06 04:52:45;;;;;;;4.13;3.80;;;;;15.80;102192.00;;;;2087094;28;20206;-70
2021/03/06 04:53:45;;;;;;;4.93;4.53;;;;;15.80;102185.00;;;;2076592;28;20573;-70
2021/03/06 04:54:45;;;;;;;4.47;4.07;;;;;15.80;102190.00;;;;2075955;28;20211;-70
2021/03/06 04:55:46;;;;;;;5.03;4.63;;;;;15.80;102191.00;;;;2076485;28;20203;-70
2021/03/06 04:56:46;;;;;;;5.13;4.63;;;;;15.80;102185.00;;;;2084892;28;20234;-70
2021/03/06 04:57:47;;;;;;;4.40;4.00;;;;;15.80;102193.00;;;;2087446;28;20206;-70
2021/03/06 04:58:47;;;;;;;4.45;4.15;;;;;15.80;102193.00;;;;2078990;28;20213;-70
2021/03/06 04:59:48;;;;;;;4.30;4.00;;;;;15.80;102194.00;;;;2076520;28;20222;-69
2021/03/06 05:00:49;;;;;;;4.68;4.28;;;;;15.80;102187.00;;;;2079085;28;20582;-70
2021/03/06 05:01:49;;;;;;;4.30;3.93;;;;;15.80;102189.00;;;;2079069;28;20224;-70
2021/03/06 05:02:50;;;;;;;4.53;4.13;;;;;15.80;102197.00;;;;2076478;28;20820;-70
2021/03/06 05:03:50;;;;;;;4.57;4.18;;;;;15.80;102196.00;;;;2076366;28;20212;-70
2021/03/06 05:04:51;;;;;;;4.50;4.10;;;;;15.80;102192.00;;;;2084322;28;20576;-70
2021/03/06 05:05:51;;;;;;;4.33;3.93;;;;;15.80;102191.00;;;;2085200;28;20617;-69
2021/03/06 05:06:51;;;;;;;5.30;4.80;;;;;15.80;102191.00;;;;2085069;28;20893;-70
2021/03/06 05:07:52;;;;;;;4.37;3.97;;;;;15.80;102196.00;;;;2085075;28;20206;-70